createdAt,value
2024-03-01T00:00:04.004Z,14.16
2024-03-01T00:00:30.724Z,14.11
2024-03-01T00:00:52.481Z,14.23
2024-03-01T00:01:15.205Z,14.28
2024-03-01T00:01:37.054Z,14.29
2024-03-01T00:01:58.783Z,14.09
2024-03-01T00:02:20.527Z,14.24
2024-03-01T00:02:42.317Z,14.15
2024-03-01T00:03:06.897Z,14.21
2024-03-01T00:03:29.468Z,14.28
2024-03-01T00:03:51.293Z,14.34
2024-03-01T00:04:13.096Z,14.32
2024-03-01T00:04:34.876Z,14.33
2024-03-01T00:04:56.546Z,14.36
2024-03-01T00:05:18.263Z,14.42
2024-03-01T00:05:40.865Z,14.45
2024-03-01T00:06:02.492Z,14.50
2024-03-01T00:06:24.123Z,14.52
2024-03-01T00:06:45.740Z,14.58
2024-03-01T00:07:07.389Z,14.60
2024-03-01T00:07:30.068Z,14.63
2024-03-01T00:07:53.079Z,14.65
2024-03-01T00:08:14.724Z,14.62
2024-03-01T00:08:36.315Z,14.63
2024-03-01T00:08:57.964Z,14.67
2024-03-01T00:09:20.800Z,14.69
2024-03-01T00:09:42.401Z,14.59
2024-03-01T00:10:05.694Z,14.55
2024-03-01T00:10:27.972Z,14.40
2024-03-01T00:10:49.743Z,14.43
2024-03-01T00:11:11.444Z,14.43
2024-03-01T00:11:34.090Z,14.47
2024-03-01T00:11:55.750Z,14.50
2024-03-01T00:12:17.469Z,14.50
2024-03-01T00:12:39.263Z,14.45
2024-03-01T00:13:00.955Z,14.57
2024-03-01T00:13:23.946Z,14.53
2024-03-01T00:13:45.610Z,14.59
2024-03-01T00:14:07.807Z,14.61
2024-03-01T00:14:29.398Z,14.64
2024-03-01T00:14:50.995Z,14.63
2024-03-01T00:15:13.826Z,14.66
2024-03-01T00:15:46.352Z,14.59
2024-03-01T00:16:51.433Z,14.68
2024-03-01T00:17:14.715Z,14.73
2024-03-01T00:17:37.857Z,14.71
2024-03-01T00:18:02.332Z,14.66
2024-03-01T00:18:25.215Z,14.59
2024-03-01T00:18:49.075Z,14.37
2024-03-01T00:19:21.521Z,14.14
2024-03-01T00:19:58.645Z,14.28
2024-03-01T00:20:30.249Z,14.42
2024-03-01T00:20:52.835Z,14.42
2024-03-01T00:21:17.139Z,14.53
2024-03-01T00:21:39.758Z,14.49
2024-03-01T00:22:02.037Z,14.33
2024-03-01T00:22:23.835Z,14.17
2024-03-01T00:22:45.500Z,14.08
2024-03-01T00:23:09.786Z,14.13
2024-03-01T00:23:31.651Z,14.15
2024-03-01T00:23:53.414Z,14.17
2024-03-01T00:24:15.136Z,14.24
2024-03-01T00:24:36.747Z,14.26
2024-03-01T00:25:09.794Z,14.08
2024-03-01T00:25:33.623Z,14.00
2024-03-01T00:25:55.682Z,14.09
2024-03-01T00:26:17.394Z,14.17
2024-03-01T00:26:39.004Z,14.12
2024-03-01T00:27:00.631Z,14.06
2024-03-01T00:27:23.228Z,14.13
2024-03-01T00:27:44.895Z,14.02
2024-03-01T00:28:06.568Z,14.07
2024-03-01T00:28:28.282Z,14.12
2024-03-01T00:28:50.046Z,14.16
2024-03-01T00:29:12.762Z,14.20
2024-03-01T00:29:34.625Z,14.25
2024-03-01T00:29:56.235Z,14.27
2024-03-01T00:30:19.372Z,14.32
2024-03-01T00:30:40.994Z,14.30
2024-03-01T00:31:02.922Z,14.34
2024-03-01T00:31:26.293Z,14.35
2024-03-01T00:31:48.043Z,14.01
2024-03-01T00:32:11.181Z,13.96
2024-03-01T00:32:33.495Z,14.03
2024-03-01T00:32:55.469Z,14.07
2024-03-01T00:33:17.353Z,14.12
2024-03-01T00:33:39.965Z,14.14
2024-03-01T00:34:01.626Z,14.15
2024-03-01T00:34:23.308Z,14.12
2024-03-01T00:34:45.093Z,14.15
2024-03-01T00:35:07.641Z,14.13
2024-03-01T00:35:29.260Z,14.01
2024-03-01T00:35:51.863Z,13.88
2024-03-01T00:36:18.795Z,13.81
2024-03-01T00:37:01.275Z,13.87
2024-03-01T00:37:33.069Z,14.02
2024-03-01T00:38:19.389Z,14.11
2024-03-01T00:38:51.447Z,14.22
2024-03-01T00:39:58.060Z,14.16
2024-03-01T00:40:23.345Z,14.23
2024-03-01T00:40:48.320Z,14.31
2024-03-01T00:41:10.001Z,14.05
2024-03-01T00:41:38.118Z,14.15
2024-03-01T00:42:06.518Z,14.16
2024-03-01T00:42:34.776Z,14.13
2024-03-01T00:43:01.019Z,14.21
2024-03-01T00:43:33.494Z,14.31
2024-03-01T00:44:04.754Z,14.29
2024-03-01T00:44:46.816Z,14.12
2024-03-01T00:45:10.634Z,13.98
2024-03-01T00:45:37.136Z,14.04
2024-03-01T00:45:59.399Z,14.15
2024-03-01T00:46:27.842Z,14.13
2024-03-01T00:46:55.448Z,14.26
2024-03-01T00:49:58.952Z,14.06
2024-03-01T00:51:29.153Z,14.15
2024-03-01T00:51:59.899Z,14.05
2024-03-01T00:52:46.822Z,14.23
2024-03-01T00:55:37.922Z,13.92
2024-03-01T00:58:55.673Z,13.95
2024-03-01T01:07:39.885Z,13.71
2024-03-01T01:08:02.659Z,13.75
2024-03-01T01:08:25.500Z,13.76
2024-03-01T01:08:47.178Z,13.77
2024-03-01T01:09:09.527Z,13.74
2024-03-01T01:09:32.585Z,13.62
2024-03-01T01:09:54.391Z,13.34
2024-03-01T01:10:18.134Z,13.31
2024-03-01T01:10:39.831Z,13.45
2024-03-01T01:11:01.585Z,13.50
2024-03-01T01:11:23.436Z,13.52
2024-03-01T01:12:22.422Z,13.63
2024-03-01T01:12:44.210Z,13.61
2024-03-01T01:13:05.951Z,13.64
2024-03-01T01:13:28.382Z,13.71
2024-03-01T01:13:50.700Z,13.80
2024-03-01T01:14:12.475Z,13.81
2024-03-01T01:14:34.172Z,13.77
2024-03-01T01:14:56.818Z,13.72
2024-03-01T01:15:18.485Z,13.68
2024-03-01T01:15:40.128Z,13.64
2024-03-01T01:16:01.800Z,13.69
2024-03-01T01:16:23.555Z,13.75
2024-03-01T01:16:46.193Z,13.81
2024-03-01T01:17:07.783Z,13.80
2024-03-01T01:17:29.491Z,13.82
2024-03-01T01:17:51.279Z,13.96
2024-03-01T01:18:13.937Z,13.96
2024-03-01T01:18:36.182Z,13.96
2024-03-01T01:18:58.759Z,14.01
2024-03-01T01:19:20.514Z,14.06
2024-03-01T01:19:42.405Z,14.03
2024-03-01T01:20:04.912Z,14.00
2024-03-01T01:20:26.652Z,13.91
2024-03-01T01:20:49.372Z,13.89
2024-03-01T01:21:11.102Z,13.79
2024-03-01T01:21:33.707Z,13.84
2024-03-01T01:21:55.496Z,13.94
2024-03-01T01:22:17.745Z,14.00
2024-03-01T01:22:39.973Z,14.04
2024-03-01T01:23:02.705Z,14.11
2024-03-01T01:23:24.392Z,14.12
2024-03-01T01:23:46.134Z,14.00
2024-03-01T01:24:07.856Z,13.98
2024-03-01T01:24:29.565Z,13.92
2024-03-01T01:24:52.767Z,13.93
2024-03-01T01:25:14.511Z,13.90
2024-03-01T01:25:37.588Z,13.87
2024-03-01T01:25:59.380Z,13.88
2024-03-01T01:26:29.805Z,13.92
2024-03-01T01:26:51.676Z,13.83
2024-03-01T01:27:13.395Z,13.86
2024-03-01T01:27:35.107Z,13.71
2024-03-01T01:27:57.836Z,13.70
2024-03-01T01:28:19.576Z,13.78
2024-03-01T01:28:41.262Z,13.82
2024-03-01T01:29:03.890Z,13.87
2024-03-01T01:29:25.598Z,13.94
2024-03-01T01:29:48.343Z,13.96
2024-03-01T01:30:11.728Z,13.79
2024-03-01T01:30:33.482Z,13.73
2024-03-01T01:30:55.269Z,13.72
2024-03-01T01:31:17.087Z,13.84
2024-03-01T01:31:39.782Z,13.93
2024-03-01T01:32:01.545Z,13.99
2024-03-01T01:32:24.598Z,14.01
2024-03-01T01:32:46.313Z,13.94
2024-03-01T01:33:08.171Z,13.69
2024-03-01T01:33:30.044Z,13.69
2024-03-01T01:33:52.834Z,13.76
2024-03-01T01:34:14.550Z,13.66
2024-03-01T01:34:36.363Z,13.89
2024-03-01T01:34:58.105Z,13.92
2024-03-01T01:35:19.779Z,13.91
2024-03-01T01:35:42.431Z,13.90
2024-03-01T01:36:04.801Z,13.82
2024-03-01T01:36:26.704Z,13.91
2024-03-01T01:36:50.144Z,13.95
2024-03-01T01:37:11.937Z,13.88
2024-03-01T01:37:33.730Z,13.98
2024-03-01T01:37:57.300Z,13.97
2024-03-01T01:38:19.108Z,13.90
2024-03-01T01:38:40.830Z,13.96
2024-03-01T01:39:04.450Z,14.02
2024-03-01T01:39:27.305Z,14.05
2024-03-01T01:39:49.181Z,14.00
2024-03-01T01:40:13.755Z,14.08
2024-03-01T01:40:35.665Z,14.11
2024-03-01T01:40:57.437Z,14.13
2024-03-01T01:41:20.201Z,14.10
2024-03-01T01:41:41.882Z,14.16
2024-03-01T01:42:03.688Z,14.25
2024-03-01T01:42:25.394Z,14.29
2024-03-01T01:42:52.115Z,14.28
2024-03-01T01:43:14.929Z,14.36
2024-03-01T01:43:39.090Z,14.42
2024-03-01T01:44:00.918Z,14.47
2024-03-01T01:44:22.947Z,14.49
2024-03-01T01:44:44.654Z,14.51
2024-03-01T01:45:07.149Z,14.46
2024-03-01T01:45:29.873Z,14.46
2024-03-01T01:45:51.604Z,14.41
2024-03-01T01:46:15.487Z,14.41
2024-03-01T01:46:37.291Z,14.31
2024-03-01T01:46:59.038Z,14.33
2024-03-01T01:47:21.563Z,14.39
2024-03-01T01:47:49.321Z,14.34
2024-03-01T01:48:11.111Z,14.43
2024-03-01T01:48:33.009Z,14.39
2024-03-01T01:48:54.831Z,14.35
2024-03-01T01:49:17.922Z,14.35
2024-03-01T01:49:42.272Z,14.39
2024-03-01T01:50:04.494Z,14.40
2024-03-01T01:50:27.341Z,14.43
2024-03-01T01:50:49.277Z,14.40
2024-03-01T01:51:13.574Z,14.53
2024-03-01T01:51:35.861Z,14.55
2024-03-01T01:52:00.975Z,14.59
2024-03-01T01:52:23.136Z,14.65
2024-03-01T01:52:47.175Z,14.67
2024-03-01T01:53:16.503Z,14.63
2024-03-01T02:02:45.532Z,14.23
2024-03-01T02:04:01.244Z,13.72
2024-03-01T02:04:24.103Z,13.82
2024-03-01T02:04:46.177Z,13.84
2024-03-01T02:05:08.203Z,13.89
2024-03-01T02:05:30.205Z,13.96
2024-03-01T02:05:51.977Z,14.01
2024-03-01T02:06:14.670Z,14.00
2024-03-01T02:06:37.041Z,14.10
2024-03-01T02:06:58.833Z,13.83
2024-03-01T02:07:22.810Z,14.12
2024-03-01T02:07:44.940Z,14.14
2024-03-01T02:08:08.464Z,14.23
2024-03-01T02:08:30.559Z,14.19
2024-03-01T02:08:52.593Z,14.24
2024-03-01T02:09:14.548Z,14.08
2024-03-01T02:09:38.139Z,14.12
2024-03-01T02:10:00.298Z,14.14
2024-03-01T02:10:23.454Z,14.29
2024-03-01T02:10:46.661Z,14.36
2024-03-01T02:11:09.113Z,14.39
2024-03-01T02:11:30.902Z,14.38
2024-03-01T02:11:52.672Z,14.49
2024-03-01T02:12:18.822Z,14.55
2024-03-01T02:12:41.619Z,14.56
2024-03-01T02:13:03.659Z,14.57
2024-03-01T02:13:25.507Z,14.54
2024-03-01T02:13:47.295Z,14.50
2024-03-01T02:14:10.634Z,14.43
2024-03-01T02:14:33.506Z,14.38
2024-03-01T02:14:55.217Z,14.33
2024-03-01T02:15:16.926Z,14.36
2024-03-01T02:15:38.635Z,14.32
2024-03-01T02:16:00.661Z,14.23
2024-03-01T02:16:22.630Z,14.17
2024-03-01T02:16:45.367Z,14.21
2024-03-01T02:17:07.094Z,14.20
2024-03-01T02:17:28.825Z,14.20
2024-03-01T02:17:50.560Z,14.10
2024-03-01T02:18:12.319Z,14.19
2024-03-01T02:18:35.202Z,14.23
2024-03-01T02:18:57.442Z,14.09
2024-03-01T02:19:20.684Z,14.24
2024-03-01T02:19:42.456Z,14.06
2024-03-01T02:20:06.794Z,13.92
2024-03-01T02:20:31.990Z,13.99
2024-03-01T02:21:02.400Z,14.05
2024-03-01T02:21:28.446Z,14.08
2024-03-01T02:21:58.049Z,14.14
2024-03-01T02:22:20.531Z,14.00
2024-03-01T02:22:47.927Z,13.96
2024-03-01T02:23:17.091Z,13.92
2024-03-01T02:23:39.066Z,13.99
2024-03-01T02:24:00.798Z,14.04
2024-03-01T02:24:22.800Z,13.96
2024-03-01T02:24:44.551Z,14.11
2024-03-01T02:25:06.918Z,14.15
2024-03-01T02:25:29.955Z,14.18
2024-03-01T02:25:51.879Z,14.05
2024-03-01T02:26:14.381Z,14.10
2024-03-01T02:26:36.080Z,14.18
2024-03-01T02:27:00.739Z,14.24
2024-03-01T02:27:25.294Z,14.31
2024-03-01T02:27:48.196Z,14.33
2024-03-01T02:28:09.944Z,14.32
2024-03-01T02:28:31.940Z,14.29
2024-03-01T02:28:53.688Z,14.31
2024-03-01T02:29:15.330Z,14.18
2024-03-01T02:29:37.035Z,14.16
2024-03-01T02:29:58.665Z,14.17
2024-03-01T02:30:21.257Z,14.19
2024-03-01T02:30:42.942Z,14.10
2024-03-01T02:31:05.856Z,14.15
2024-03-01T02:31:27.557Z,14.11
2024-03-01T02:31:49.310Z,14.18
2024-03-01T02:32:13.739Z,14.18
2024-03-01T02:32:35.422Z,14.13
2024-03-01T02:32:57.255Z,14.15
2024-03-01T02:33:19.419Z,14.16
2024-03-01T02:33:41.381Z,14.18
2024-03-01T02:34:04.174Z,14.21
2024-03-01T02:34:25.949Z,14.17
2024-03-01T02:34:47.711Z,14.22
2024-03-01T02:35:09.747Z,14.23
2024-03-01T02:35:31.409Z,14.26
2024-03-01T02:35:56.235Z,14.31
2024-03-01T02:36:19.338Z,14.32
2024-03-01T02:36:41.829Z,14.20
2024-03-01T02:37:03.862Z,14.27
2024-03-01T02:37:25.610Z,14.25
2024-03-01T02:37:47.229Z,14.02
2024-03-01T02:38:09.778Z,13.98
2024-03-01T02:38:32.779Z,14.03
2024-03-01T02:38:54.452Z,14.06
2024-03-01T02:39:18.378Z,14.02
2024-03-01T02:39:40.272Z,14.01
2024-03-01T02:40:02.223Z,13.97
2024-03-01T02:40:24.005Z,13.82
2024-03-01T02:40:46.751Z,13.83
2024-03-01T02:41:08.376Z,13.52
2024-03-01T02:41:30.439Z,13.63
2024-03-01T02:41:52.042Z,13.74
2024-03-01T02:42:13.659Z,13.80
2024-03-01T02:42:35.718Z,13.85
2024-03-01T02:42:58.733Z,13.89
2024-03-01T02:43:20.372Z,13.95
2024-03-01T02:43:42.060Z,14.00
2024-03-01T02:44:04.127Z,14.07
2024-03-01T02:44:25.818Z,14.12
2024-03-01T02:44:48.406Z,14.08
2024-03-01T02:45:10.728Z,14.12
2024-03-01T02:45:32.516Z,14.12
2024-03-01T02:45:54.158Z,14.20
2024-03-01T02:46:15.871Z,14.23
2024-03-01T02:46:38.469Z,14.26
2024-03-01T02:47:00.156Z,14.26
2024-03-01T02:47:21.784Z,14.30
2024-03-01T02:47:43.819Z,14.27
2024-03-01T02:48:07.449Z,14.26
2024-03-01T02:48:29.114Z,14.27
2024-03-01T02:48:50.904Z,14.26
2024-03-01T02:49:12.592Z,14.17
2024-03-01T02:49:34.845Z,14.21
2024-03-01T02:49:57.068Z,14.23
2024-03-01T02:50:19.704Z,14.24
2024-03-01T02:50:41.383Z,14.24
2024-03-01T02:51:03.085Z,14.24
2024-03-01T02:51:24.891Z,14.33
2024-03-01T02:51:46.505Z,14.35
2024-03-01T02:52:09.584Z,14.39
2024-03-01T02:52:31.349Z,14.42
2024-03-01T02:52:53.087Z,14.44
2024-03-01T02:53:14.760Z,14.30
2024-03-01T02:53:37.699Z,14.19
2024-03-01T02:54:00.991Z,13.95
2024-03-01T02:54:22.569Z,14.08
2024-03-01T02:54:44.258Z,14.10
2024-03-01T02:55:05.898Z,14.12
2024-03-01T02:55:27.569Z,14.19
2024-03-01T02:55:49.199Z,14.24
2024-03-01T02:56:11.854Z,14.30
2024-03-01T02:56:33.691Z,14.32
2024-03-01T02:56:55.351Z,14.21
2024-03-01T02:57:16.961Z,14.16
2024-03-01T02:57:38.561Z,14.24
2024-03-01T02:58:01.974Z,14.27
2024-03-01T02:58:24.144Z,14.26
2024-03-01T02:58:45.775Z,14.17
2024-03-01T02:59:07.956Z,14.15
2024-03-01T02:59:29.597Z,14.20
2024-03-01T02:59:51.283Z,14.17
2024-03-01T03:00:16.024Z,14.13
2024-03-01T03:00:37.668Z,14.10
2024-03-01T03:00:59.349Z,14.21
2024-03-01T03:01:22.521Z,14.23
2024-03-01T03:01:45.168Z,14.27
2024-03-01T03:02:06.911Z,13.93
2024-03-01T03:02:28.683Z,14.04
2024-03-01T03:02:51.013Z,14.08
2024-03-01T03:03:12.625Z,14.04
2024-03-01T03:03:35.190Z,14.04
2024-03-01T03:03:56.784Z,14.08
2024-03-01T03:04:18.451Z,14.05
2024-03-01T03:04:40.149Z,14.11
2024-03-01T03:05:01.801Z,13.96
2024-03-01T03:05:24.579Z,13.99
2024-03-01T03:05:46.280Z,13.83
2024-03-01T03:06:07.900Z,13.69
2024-03-01T03:06:29.494Z,13.39
2024-03-01T03:06:55.089Z,13.25
2024-03-01T03:07:21.394Z,13.35
2024-03-01T03:07:43.152Z,13.30
2024-03-01T03:08:06.424Z,13.35
2024-03-01T03:08:28.196Z,13.04
2024-03-01T03:08:51.905Z,13.28
2024-03-01T03:09:14.475Z,13.38
2024-03-01T03:09:36.110Z,13.47
2024-03-01T03:09:58.449Z,13.57
2024-03-01T03:10:21.011Z,13.59
2024-03-01T03:10:42.690Z,13.49
2024-03-01T03:11:05.654Z,13.68
2024-03-01T03:11:27.327Z,13.76
2024-03-01T03:11:48.960Z,13.77
2024-03-01T03:12:11.534Z,13.81
2024-03-01T03:12:33.193Z,13.76
2024-03-01T03:12:55.796Z,13.82
2024-03-01T03:13:17.591Z,13.72
2024-03-01T03:13:39.417Z,13.73
2024-03-01T03:14:03.264Z,13.61
2024-03-01T03:14:24.902Z,13.61
2024-03-01T03:14:46.512Z,13.61
2024-03-01T03:15:10.561Z,13.60
2024-03-01T03:15:32.166Z,13.67
2024-03-01T03:15:53.845Z,13.69
2024-03-01T03:16:15.776Z,13.75
2024-03-01T03:16:37.777Z,13.74
2024-03-01T03:16:59.415Z,13.88
2024-03-01T03:17:22.527Z,13.92
2024-03-01T03:17:45.744Z,13.98
2024-03-01T03:18:08.834Z,14.05
2024-03-01T03:18:31.148Z,14.03
2024-03-01T03:18:52.938Z,14.15
2024-03-01T03:19:14.928Z,14.18
2024-03-01T03:19:37.717Z,14.22
2024-03-01T03:19:59.349Z,14.24
2024-03-01T03:20:22.661Z,14.30
2024-03-01T03:20:44.262Z,14.30
2024-03-01T03:21:06.079Z,14.34
2024-03-01T03:21:28.700Z,14.36
2024-03-01T03:21:50.355Z,14.20
2024-03-01T03:22:12.035Z,14.33
2024-03-01T03:22:33.799Z,14.36
2024-03-01T03:22:57.378Z,14.34
2024-03-01T03:23:19.929Z,14.30
2024-03-01T03:23:41.759Z,14.22
2024-03-01T03:24:05.455Z,14.22
2024-03-01T03:24:27.297Z,14.21
2024-03-01T03:24:48.963Z,14.26
2024-03-01T03:25:10.628Z,14.28
2024-03-01T03:25:37.340Z,14.32
2024-03-01T03:25:59.356Z,14.40
2024-03-01T03:26:20.957Z,14.36
2024-03-01T03:26:42.660Z,14.18
2024-03-01T03:27:04.426Z,14.23
2024-03-01T03:27:26.071Z,14.23
2024-03-01T03:27:48.721Z,14.22
2024-03-01T03:28:10.536Z,14.16
2024-03-01T03:28:32.268Z,14.19
2024-03-01T03:28:53.995Z,14.20
2024-03-01T03:29:15.671Z,14.23
2024-03-01T03:29:38.926Z,14.26
2024-03-01T03:30:01.598Z,14.31
2024-03-01T03:30:23.649Z,14.34
2024-03-01T03:30:45.488Z,14.35
2024-03-01T03:31:07.148Z,14.39
2024-03-01T03:31:28.872Z,14.47
2024-03-01T03:31:51.573Z,14.44
2024-03-01T03:32:13.199Z,14.20
2024-03-01T03:32:35.052Z,14.17
2024-03-01T03:32:56.675Z,14.21
2024-03-01T03:33:18.353Z,14.19
2024-03-01T03:33:39.993Z,14.18
2024-03-01T03:34:01.674Z,14.27
2024-03-01T03:34:24.476Z,14.32
2024-03-01T03:34:46.228Z,14.18
2024-03-01T03:35:09.019Z,14.19
2024-03-01T03:35:30.649Z,14.10
2024-03-01T03:35:52.282Z,13.95
2024-03-01T03:36:14.877Z,14.02
2024-03-01T03:36:36.469Z,14.03
2024-03-01T03:36:58.172Z,14.11
2024-03-01T03:37:22.005Z,14.16
2024-03-01T03:37:43.756Z,14.19
2024-03-01T03:38:06.400Z,14.14
2024-03-01T03:38:28.085Z,14.15
2024-03-01T03:38:49.711Z,14.18
2024-03-01T03:39:12.783Z,14.21
2024-03-01T03:39:34.448Z,14.19
2024-03-01T03:39:57.045Z,14.26
2024-03-01T03:40:18.973Z,14.32
2024-03-01T03:40:42.064Z,14.32
2024-03-01T03:41:05.301Z,14.32
2024-03-01T03:41:26.921Z,14.18
2024-03-01T03:41:49.515Z,14.27
2024-03-01T03:42:11.139Z,14.22
2024-03-01T03:42:33.577Z,14.29
2024-03-01T03:42:55.227Z,14.24
2024-03-01T03:43:16.899Z,14.14
2024-03-01T03:43:39.649Z,14.15
2024-03-01T03:44:01.284Z,14.18
2024-03-01T03:44:22.873Z,13.93
2024-03-01T03:44:44.504Z,14.02
2024-03-01T03:45:07.303Z,14.03
2024-03-01T03:45:28.898Z,14.05
2024-03-01T03:45:51.485Z,14.12
2024-03-01T03:46:13.209Z,14.15
2024-03-01T03:46:35.048Z,14.23
2024-03-01T03:46:56.668Z,14.15
2024-03-01T03:47:18.281Z,13.86
2024-03-01T03:47:40.948Z,13.97
2024-03-01T03:48:02.926Z,13.87
2024-03-01T03:48:24.506Z,13.97
2024-03-01T03:48:46.174Z,14.03
2024-03-01T03:49:12.392Z,14.06
2024-03-01T03:49:34.843Z,14.00
2024-03-01T03:49:56.509Z,14.00
2024-03-01T03:50:18.157Z,14.01
2024-03-01T03:50:39.786Z,13.88
2024-03-01T03:51:02.424Z,13.73
2024-03-01T03:51:25.348Z,13.77
2024-03-01T03:51:46.947Z,13.74
2024-03-01T03:52:09.746Z,13.82
2024-03-01T03:52:31.472Z,13.90
2024-03-01T03:52:54.083Z,13.94
2024-03-01T03:53:16.059Z,14.02
2024-03-01T03:53:37.643Z,14.06
2024-03-01T03:53:59.291Z,13.86
2024-03-01T03:54:22.292Z,13.80
2024-03-01T03:54:43.982Z,13.62
2024-03-01T03:55:08.254Z,13.71
2024-03-01T03:55:30.152Z,13.80
2024-03-01T03:55:51.802Z,13.81
2024-03-01T03:56:13.407Z,13.83
2024-03-01T03:56:35.095Z,13.66
2024-03-01T03:56:56.708Z,13.76
2024-03-01T03:57:18.323Z,13.84
2024-03-01T03:57:40.997Z,13.93
2024-03-01T03:58:02.649Z,13.88
2024-03-01T04:03:02.917Z,13.83
2024-03-01T04:19:12.790Z,14.11
2024-03-01T04:19:34.534Z,14.27
2024-03-01T04:19:56.410Z,14.26
2024-03-01T04:20:18.395Z,14.26
2024-03-01T04:20:40.036Z,14.23
2024-03-01T04:21:02.519Z,14.25
2024-03-01T04:21:25.180Z,14.29
2024-03-01T04:21:47.039Z,14.32
2024-03-01T04:22:09.669Z,14.32
2024-03-01T04:22:31.375Z,14.20
2024-03-01T04:22:53.035Z,14.09
2024-03-01T04:23:15.656Z,14.07
2024-03-01T04:23:37.262Z,14.12
2024-03-01T04:23:59.026Z,14.22
2024-03-01T04:24:20.625Z,14.25
2024-03-01T04:24:43.108Z,14.21
2024-03-01T04:25:06.969Z,14.31
2024-03-01T04:25:29.016Z,14.37
2024-03-01T04:25:52.496Z,14.29
2024-03-01T04:26:14.523Z,14.37
2024-03-01T04:26:36.219Z,14.42
2024-03-01T04:26:57.964Z,14.38
2024-03-01T04:27:20.558Z,14.07
2024-03-01T04:27:43.531Z,13.83
2024-03-01T04:28:05.900Z,13.78
2024-03-01T04:28:27.799Z,13.87
2024-03-01T04:28:50.999Z,14.00
2024-03-01T04:29:13.754Z,14.11
2024-03-01T04:29:35.356Z,14.06
2024-03-01T04:29:56.965Z,14.06
2024-03-01T04:30:18.672Z,14.15
2024-03-01T04:30:41.707Z,14.25
2024-03-01T04:31:04.845Z,14.29
2024-03-01T04:31:27.553Z,14.30
2024-03-01T04:31:49.966Z,14.31
2024-03-01T04:32:11.656Z,14.19
2024-03-01T04:32:33.302Z,14.24
2024-03-01T04:32:55.002Z,14.31
2024-03-01T04:33:17.582Z,14.31
2024-03-01T04:33:40.669Z,14.34
2024-03-01T04:34:05.190Z,14.27
2024-03-01T04:34:26.907Z,14.19
2024-03-01T04:34:48.707Z,14.24
2024-03-01T04:35:12.668Z,14.32
2024-03-01T04:35:34.255Z,14.30
2024-03-01T04:35:55.890Z,14.36
2024-03-01T04:36:18.475Z,14.37
2024-03-01T04:36:40.301Z,14.37
2024-03-01T04:37:02.190Z,14.42
2024-03-01T04:37:23.988Z,14.45
2024-03-01T04:37:45.654Z,14.41
2024-03-01T04:38:07.696Z,14.35
2024-03-01T04:38:30.258Z,14.38
2024-03-01T04:38:51.907Z,14.35
2024-03-01T04:39:15.478Z,14.38
2024-03-01T04:39:37.108Z,14.38
2024-03-01T04:39:58.745Z,14.42
2024-03-01T04:40:21.121Z,14.33
2024-03-01T04:40:46.743Z,14.31
2024-03-01T04:41:15.324Z,14.35
2024-03-01T04:41:37.043Z,14.40
2024-03-01T04:41:58.663Z,14.34
2024-03-01T04:42:20.296Z,14.36
2024-03-01T04:42:43.269Z,14.17
2024-03-01T04:43:06.571Z,14.20
2024-03-01T04:43:28.532Z,14.19
2024-03-01T04:43:50.271Z,14.06
2024-03-01T04:44:11.865Z,14.19
2024-03-01T04:44:33.436Z,14.10
2024-03-01T04:44:55.081Z,14.18
2024-03-01T04:45:17.684Z,14.10
2024-03-01T04:45:39.577Z,14.05
2024-03-01T04:46:02.737Z,14.02
2024-03-01T04:46:24.487Z,13.87
2024-03-01T04:46:46.211Z,13.90
2024-03-01T04:47:08.590Z,14.02
2024-03-01T04:47:31.263Z,14.04
2024-03-01T04:47:52.973Z,13.64
2024-03-01T04:48:14.664Z,13.64
2024-03-01T04:48:36.256Z,13.60
2024-03-01T04:48:58.058Z,13.62
2024-03-01T04:49:20.691Z,13.58
2024-03-01T04:49:44.597Z,13.63
2024-03-01T04:50:07.439Z,13.61
2024-03-01T04:50:29.046Z,13.72
2024-03-01T04:50:50.669Z,13.78
2024-03-01T04:51:13.720Z,13.82
2024-03-01T04:51:36.503Z,13.84
2024-03-01T04:51:58.172Z,13.88
2024-03-01T04:52:19.822Z,13.93
2024-03-01T04:52:41.945Z,13.79
2024-03-01T04:53:04.122Z,13.71
2024-03-01T04:53:25.835Z,13.65
2024-03-01T04:53:48.445Z,13.60
2024-03-01T04:54:10.208Z,13.60
2024-03-01T04:54:31.897Z,13.72
2024-03-01T04:54:53.754Z,13.75
2024-03-01T04:55:15.747Z,13.82
2024-03-01T04:55:38.399Z,13.91
2024-03-01T04:56:00.002Z,13.93
2024-03-01T04:56:21.585Z,13.93
2024-03-01T04:56:45.108Z,13.98
2024-03-01T04:57:07.234Z,13.96
2024-03-01T04:57:29.828Z,13.82
2024-03-01T04:57:52.838Z,13.88
2024-03-01T04:58:14.561Z,13.89
2024-03-01T04:58:36.334Z,13.96
2024-03-01T04:58:58.473Z,14.05
2024-03-01T04:59:21.096Z,14.12
2024-03-01T04:59:42.765Z,14.10
2024-03-01T05:00:12.867Z,13.98
2024-03-01T05:00:35.891Z,14.04
2024-03-01T05:01:17.354Z,14.06
2024-03-01T05:01:56.104Z,14.02
2024-03-01T05:04:44.762Z,14.26
2024-03-01T05:07:16.401Z,14.23
2024-03-01T05:09:45.635Z,14.27
2024-03-01T05:11:09.006Z,14.38
2024-03-01T05:11:35.011Z,14.40
2024-03-01T05:11:58.225Z,14.38
2024-03-01T05:12:19.823Z,14.20
2024-03-01T05:12:44.665Z,14.13
2024-03-01T05:13:09.276Z,14.16
2024-03-01T05:13:31.794Z,14.28
2024-03-01T05:13:54.484Z,14.33
2024-03-01T05:14:16.546Z,14.33
2024-03-01T05:14:38.369Z,14.38
2024-03-01T05:15:01.516Z,14.41
2024-03-01T05:15:24.534Z,14.37
2024-03-01T05:15:47.346Z,14.39
2024-03-01T05:16:08.998Z,14.44
2024-03-01T05:16:30.905Z,14.46
2024-03-01T05:16:52.503Z,14.40
2024-03-01T05:17:14.702Z,14.36
2024-03-01T05:17:38.105Z,14.37
2024-03-01T05:18:00.768Z,14.34
2024-03-01T05:18:22.513Z,14.36
2024-03-01T05:18:44.121Z,14.30
2024-03-01T05:19:05.889Z,14.39
2024-03-01T05:19:28.576Z,14.44
2024-03-01T05:19:50.201Z,14.49
2024-03-01T05:20:12.855Z,14.57
2024-03-01T05:20:34.472Z,14.58
2024-03-01T05:20:56.179Z,14.47
2024-03-01T05:21:18.797Z,14.55
2024-03-01T05:21:40.389Z,14.60
2024-03-01T05:22:02.077Z,14.56
2024-03-01T05:22:24.791Z,14.60
2024-03-01T05:22:47.380Z,14.59
2024-03-01T05:23:10.070Z,14.59
2024-03-01T05:23:34.783Z,14.57
2024-03-01T05:23:56.605Z,14.60
2024-03-01T05:24:18.262Z,14.64
2024-03-01T05:24:40.140Z,14.60
2024-03-01T05:25:03.007Z,14.58
2024-03-01T05:25:24.731Z,14.63
2024-03-01T05:25:46.356Z,14.59
2024-03-01T05:26:08.925Z,14.62
2024-03-01T05:26:31.223Z,14.53
2024-03-01T05:26:54.436Z,14.48
2024-03-01T05:27:17.053Z,14.51
2024-03-01T05:27:40.077Z,14.53
2024-03-01T05:28:01.778Z,14.54
2024-03-01T05:28:24.918Z,14.35
2024-03-01T05:28:46.545Z,14.21
2024-03-01T05:29:09.141Z,14.15
2024-03-01T05:29:30.750Z,14.26
2024-03-01T05:29:52.366Z,14.16
2024-03-01T05:30:27.438Z,14.10
2024-03-01T05:31:06.992Z,14.15
2024-03-01T05:31:48.955Z,14.27
2024-03-01T05:33:37.439Z,14.44
2024-03-01T05:34:05.637Z,14.42
2024-03-01T05:34:49.428Z,14.45
2024-03-01T05:36:56.261Z,14.49
2024-03-01T05:37:52.255Z,14.63
2024-03-01T05:39:13.583Z,14.66
2024-03-01T05:40:46.133Z,14.86
2024-03-01T05:41:13.111Z,14.77
2024-03-01T05:41:34.777Z,14.65
2024-03-01T05:41:56.481Z,14.71
2024-03-01T05:42:18.280Z,14.77
2024-03-01T05:42:40.913Z,14.75
2024-03-01T05:43:02.654Z,14.44
2024-03-01T05:43:24.901Z,14.53
2024-03-01T05:43:46.668Z,14.50
2024-03-01T05:44:09.906Z,14.60
2024-03-01T05:44:32.674Z,14.59
2024-03-01T05:44:54.528Z,14.60
2024-03-01T05:45:21.684Z,14.69
2024-03-01T05:45:43.304Z,14.69
2024-03-01T05:52:50.286Z,14.88
2024-03-01T05:59:00.021Z,14.38
2024-03-01T05:59:42.710Z,14.18
2024-03-01T06:00:22.890Z,14.33
2024-03-01T06:00:45.722Z,14.31
2024-03-01T06:01:07.388Z,14.36
2024-03-01T06:01:30.097Z,14.41
2024-03-01T06:01:52.434Z,14.43
2024-03-01T06:02:14.241Z,14.53
2024-03-01T06:02:35.896Z,14.59
2024-03-01T06:02:58.777Z,14.62
2024-03-01T06:03:24.943Z,14.67
2024-03-01T06:03:46.659Z,14.66
2024-03-01T06:04:11.315Z,14.60
2024-03-01T06:04:33.190Z,14.61
2024-03-01T06:04:54.946Z,14.51
2024-03-01T06:05:17.842Z,14.39
2024-03-01T06:05:39.458Z,14.38
2024-03-01T06:06:01.990Z,14.34
2024-03-01T06:06:23.594Z,14.44
2024-03-01T06:06:45.200Z,14.53
2024-03-01T06:07:07.806Z,14.53
2024-03-01T06:07:29.771Z,14.59
2024-03-01T06:07:51.557Z,14.57
2024-03-01T06:08:13.232Z,14.52
2024-03-01T06:08:34.890Z,14.47
2024-03-01T06:08:57.459Z,14.52
2024-03-01T06:09:19.303Z,14.54
2024-03-01T06:09:41.668Z,14.60
2024-03-01T06:10:03.594Z,14.67
2024-03-01T06:10:25.282Z,14.73
2024-03-01T06:10:46.917Z,14.78